sensor_id;sensor_type;location;lat;lon;timestamp;P1;durP1;ratioP1;P2;durP2;ratioP2
45354;SDS011;31091;48.758;9.150;2024-01-15T00:01:10;21.48;;;10.10;;
45354;SDS011;31091;48.758;9.150;2024-01-15T00:03:56;20.95;;;8.73;;
45354;SDS011;31091;48.758;9.150;2024-01-15T00:06:41;19.15;;;9.45;;
45354;SDS011;31091;48.758;9.150;2024-01-15T00:09:26;17.98;;;8.82;;
45354;SDS011;31091;48.758;9.150;2024-01-15T00:12:12;18.63;;;7.97;;
45354;SDS011;31091;48.758;9.150;2024-01-15T00:14:57;21.98;;;10.05;;
45354;SDS011;31091;48.758;9.150;2024-01-15T00:17:43;23.05;;;10.23;;
45354;SDS011;31091;48.758;9.150;2024-01-15T00:20:28;22.10;;;9.45;;
45354;SDS011;31091;48.758;9.150;2024-01-15T00:23:13;19.35;;;10.63;;
45354;SDS011;31091;48.758;9.150;2024-01-15T00:25:58;24.00;;;11.63;;
45354;SDS011;31091;48.758;9.150;2024-01-15T00:28:43;20.80;;;8.73;;
45354;SDS011;31091;48.758;9.150;2024-01-15T00:31:29;21.38;;;8.73;;
45354;SDS011;31091;48.758;9.150;2024-01-15T00:34:15;20.55;;;8.45;;
45354;SDS011;31091;48.758;9.150;2024-01-15T00:37:03;18.52;;;9.05;;
45354;SDS011;31091;48.758;9.150;2024-01-15T00:39:48;18.27;;;8.32;;
45354;SDS011;31091;48.758;9.150;2024-01-15T00:42:37;16.10;;;8.80;;
45354;SDS011;31091;48.758;9.150;2024-01-15T00:45:22;22.35;;;9.73;;
45354;SDS011;31091;48.758;9.150;2024-01-15T00:48:07;19.13;;;7.78;;
45354;SDS011;31091;48.758;9.150;2024-01-15T00:50:52;17.02;;;7.00;;
45354;SDS011;31091;48.758;9.150;2024-01-15T00:53:42;17.27;;;9.00;;
45354;SDS011;31091;48.758;9.150;2024-01-15T00:56:27;23.08;;;10.48;;
45354;SDS011;31091;48.758;9.150;2024-01-15T00:59:12;17.50;;;8.27;;
45354;SDS011;31091;48.758;9.150;2024-01-15T01:01:59;18.80;;;7.70;;
45354;SDS011;31091;48.758;9.150;2024-01-15T01:04:45;20.15;;;9.10;;
45354;SDS011;31091;48.758;9.150;2024-01-15T01:07:30;18.10;;;7.18;;
45354;SDS011;31091;48.758;9.150;2024-01-15T01:10:15;19.88;;;7.70;;
45354;SDS011;31091;48.758;9.150;2024-01-15T01:13:00;20.80;;;8.93;;
45354;SDS011;31091;48.758;9.150;2024-01-15T01:15:46;17.67;;;8.65;;
45354;SDS011;31091;48.758;9.150;2024-01-15T01:18:31;19.58;;;8.48;;
45354;SDS011;31091;48.758;9.150;2024-01-15T01:21:16;22.63;;;9.30;;
45354;SDS011;31091;48.758;9.150;2024-01-15T01:24:02;21.52;;;9.48;;
45354;SDS011;31091;48.758;9.150;2024-01-15T01:26:47;18.88;;;7.70;;
45354;SDS011;31091;48.758;9.150;2024-01-15T01:29:35;16.92;;;8.00;;
45354;SDS011;31091;48.758;9.150;2024-01-15T01:32:46;21.05;;;8.90;;
45354;SDS011;31091;48.758;9.150;2024-01-15T01:35:31;20.60;;;9.85;;
45354;SDS011;31091;48.758;9.150;2024-01-15T01:38:16;21.55;;;8.57;;
45354;SDS011;31091;48.758;9.150;2024-01-15T01:41:02;16.42;;;7.40;;
45354;SDS011;31091;48.758;9.150;2024-01-15T01:43:47;18.33;;;7.88;;
45354;SDS011;31091;48.758;9.150;2024-01-15T01:46:32;21.02;;;8.48;;
45354;SDS011;31091;48.758;9.150;2024-01-15T01:49:22;19.30;;;8.40;;
45354;SDS011;31091;48.758;9.150;2024-01-15T01:52:29;17.85;;;7.38;;
45354;SDS011;31091;48.758;9.150;2024-01-15T01:55:14;17.42;;;8.52;;
45354;SDS011;31091;48.758;9.150;2024-01-15T01:57:59;18.40;;;8.43;;
45354;SDS011;31091;48.758;9.150;2024-01-15T02:00:45;20.65;;;8.63;;
45354;SDS011;31091;48.758;9.150;2024-01-15T02:03:31;20.23;;;7.50;;
45354;SDS011;31091;48.758;9.150;2024-01-15T02:06:16;19.17;;;8.50;;
45354;SDS011;31091;48.758;9.150;2024-01-15T02:09:02;17.55;;;6.90;;
45354;SDS011;31091;48.758;9.150;2024-01-15T02:11:48;20.35;;;7.80;;
45354;SDS011;31091;48.758;9.150;2024-01-15T02:14:33;18.23;;;7.30;;
45354;SDS011;31091;48.758;9.150;2024-01-15T02:17:18;18.40;;;7.72;;
45354;SDS011;31091;48.758;9.150;2024-01-15T02:20:04;19.20;;;7.57;;
45354;SDS011;31091;48.758;9.150;2024-01-15T02:22:49;20.77;;;7.82;;
45354;SDS011;31091;48.758;9.150;2024-01-15T02:25:35;15.63;;;6.60;;
45354;SDS011;31091;48.758;9.150;2024-01-15T02:28:20;21.17;;;7.55;;
45354;SDS011;31091;48.758;9.150;2024-01-15T02:31:06;18.65;;;8.05;;
45354;SDS011;31091;48.758;9.150;2024-01-15T02:33:51;15.25;;;6.72;;
45354;SDS011;31091;48.758;9.150;2024-01-15T02:36:36;18.08;;;7.95;;
45354;SDS011;31091;48.758;9.150;2024-01-15T02:39:21;15.93;;;7.53;;
45354;SDS011;31091;48.758;9.150;2024-01-15T02:42:07;13.43;;;6.88;;
45354;SDS011;31091;48.758;9.150;2024-01-15T02:44:52;17.42;;;7.03;;
45354;SDS011;31091;48.758;9.150;2024-01-15T02:47:37;16.48;;;7.50;;
45354;SDS011;31091;48.758;9.150;2024-01-15T02:50:22;15.85;;;7.10;;
45354;SDS011;31091;48.758;9.150;2024-01-15T02:53:08;18.42;;;7.82;;
45354;SDS011;31091;48.758;9.150;2024-01-15T02:55:53;19.35;;;7.32;;
45354;SDS011;31091;48.758;9.150;2024-01-15T02:58:38;14.68;;;7.07;;
45354;SDS011;31091;48.758;9.150;2024-01-15T03:01:23;19.55;;;8.13;;
45354;SDS011;31091;48.758;9.150;2024-01-15T03:04:09;16.67;;;6.78;;
45354;SDS011;31091;48.758;9.150;2024-01-15T03:06:54;19.27;;;8.48;;
45354;SDS011;31091;48.758;9.150;2024-01-15T03:09:39;15.18;;;6.40;;
45354;SDS011;31091;48.758;9.150;2024-01-15T03:12:24;15.32;;;6.88;;
45354;SDS011;31091;48.758;9.150;2024-01-15T03:15:10;15.63;;;7.03;;
45354;SDS011;31091;48.758;9.150;2024-01-15T03:17:55;17.90;;;8.35;;
45354;SDS011;31091;48.758;9.150;2024-01-15T03:20:40;18.27;;;8.02;;
45354;SDS011;31091;48.758;9.150;2024-01-15T03:23:25;15.23;;;6.15;;
45354;SDS011;31091;48.758;9.150;2024-01-15T03:26:11;17.50;;;7.22;;
45354;SDS011;31091;48.758;9.150;2024-01-15T03:28:56;15.68;;;7.38;;
45354;SDS011;31091;48.758;9.150;2024-01-15T03:31:41;16.13;;;8.45;;
45354;SDS011;31091;48.758;9.150;2024-01-15T03:34:27;18.70;;;7.57;;
45354;SDS011;31091;48.758;9.150;2024-01-15T03:37:12;18.05;;;7.22;;
45354;SDS011;31091;48.758;9.150;2024-01-15T03:39:57;20.10;;;7.28;;
45354;SDS011;31091;48.758;9.150;2024-01-15T03:42:43;18.75;;;7.18;;
45354;SDS011;31091;48.758;9.150;2024-01-15T03:45:28;17.98;;;7.30;;
45354;SDS011;31091;48.758;9.150;2024-01-15T03:48:13;20.15;;;9.00;;
45354;SDS011;31091;48.758;9.150;2024-01-15T03:50:58;17.58;;;7.38;;
45354;SDS011;31091;48.758;9.150;2024-01-15T03:53:44;17.90;;;7.45;;
45354;SDS011;31091;48.758;9.150;2024-01-15T03:56:29;17.27;;;7.55;;
45354;SDS011;31091;48.758;9.150;2024-01-15T03:59:14;18.73;;;7.40;;
45354;SDS011;31091;48.758;9.150;2024-01-15T04:01:59;15.70;;;7.57;;
45354;SDS011;31091;48.758;9.150;2024-01-15T04:04:45;16.10;;;7.50;;
45354;SDS011;31091;48.758;9.150;2024-01-15T04:07:30;15.73;;;8.30;;
45354;SDS011;31091;48.758;9.150;2024-01-15T04:10:15;15.98;;;6.80;;
45354;SDS011;31091;48.758;9.150;2024-01-15T04:13:00;17.45;;;6.60;;
45354;SDS011;31091;48.758;9.150;2024-01-15T04:15:49;17.75;;;8.05;;
45354;SDS011;31091;48.758;9.150;2024-01-15T04:18:34;13.57;;;5.90;;
45354;SDS011;31091;48.758;9.150;2024-01-15T04:21:19;13.90;;;6.72;;
45354;SDS011;31091;48.758;9.150;2024-01-15T04:24:04;16.17;;;7.65;;
45354;SDS011;31091;48.758;9.150;2024-01-15T04:26:49;13.30;;;6.18;;
45354;SDS011;31091;48.758;9.150;2024-01-15T04:29:37;13.27;;;6.20;;
45354;SDS011;31091;48.758;9.150;2024-01-15T04:32:22;18.30;;;7.70;;
45354;SDS011;31091;48.758;9.150;2024-01-15T04:35:07;17.23;;;6.55;;
45354;SDS011;31091;48.758;9.150;2024-01-15T04:37:52;15.93;;;6.60;;
45354;SDS011;31091;48.758;9.150;2024-01-15T04:40:38;18.05;;;7.70;;
45354;SDS011;31091;48.758;9.150;2024-01-15T04:43:23;18.90;;;7.65;;
45354;SDS011;31091;48.758;9.150;2024-01-15T04:46:08;13.63;;;6.75;;
45354;SDS011;31091;48.758;9.150;2024-01-15T04:48:53;16.38;;;6.82;;
45354;SDS011;31091;48.758;9.150;2024-01-15T04:51:39;16.95;;;7.80;;
45354;SDS011;31091;48.758;9.150;2024-01-15T04:54:24;17.05;;;8.10;;
45354;SDS011;31091;48.758;9.150;2024-01-15T04:57:09;17.73;;;7.57;;
45354;SDS011;31091;48.758;9.150;2024-01-15T04:59:54;16.20;;;7.15;;
45354;SDS011;31091;48.758;9.150;2024-01-15T05:02:39;15.73;;;6.28;;
45354;SDS011;31091;48.758;9.150;2024-01-15T05:05:28;17.23;;;6.95;;
45354;SDS011;31091;48.758;9.150;2024-01-15T05:08:13;17.73;;;7.50;;
45354;SDS011;31091;48.758;9.150;2024-01-15T05:10:58;16.85;;;7.53;;
45354;SDS011;31091;48.758;9.150;2024-01-15T05:13:43;21.33;;;7.82;;
45354;SDS011;31091;48.758;9.150;2024-01-15T05:16:32;17.40;;;7.78;;
45354;SDS011;31091;48.758;9.150;2024-01-15T05:19:17;18.48;;;8.23;;
45354;SDS011;31091;48.758;9.150;2024-01-15T05:22:03;17.33;;;7.85;;
45354;SDS011;31091;48.758;9.150;2024-01-15T05:24:48;21.33;;;8.05;;
45354;SDS011;31091;48.758;9.150;2024-01-15T05:27:33;19.42;;;8.38;;
45354;SDS011;31091;48.758;9.150;2024-01-15T05:30:19;19.88;;;8.38;;
45354;SDS011;31091;48.758;9.150;2024-01-15T05:33:04;17.35;;;8.02;;
45354;SDS011;31091;48.758;9.150;2024-01-15T05:35:49;19.15;;;8.40;;
45354;SDS011;31091;48.758;9.150;2024-01-15T05:38:35;17.75;;;7.65;;
45354;SDS011;31091;48.758;9.150;2024-01-15T05:41:20;19.45;;;8.13;;
45354;SDS011;31091;48.758;9.150;2024-01-15T05:44:06;17.45;;;7.82;;
45354;SDS011;31091;48.758;9.150;2024-01-15T05:46:51;18.38;;;8.00;;
45354;SDS011;31091;48.758;9.150;2024-01-15T05:49:36;21.00;;;8.45;;
45354;SDS011;31091;48.758;9.150;2024-01-15T05:52:22;17.33;;;8.35;;
45354;SDS011;31091;48.758;9.150;2024-01-15T05:55:07;15.70;;;7.68;;
45354;SDS011;31091;48.758;9.150;2024-01-15T05:57:52;15.48;;;7.78;;
45354;SDS011;31091;48.758;9.150;2024-01-15T06:00:37;17.52;;;7.82;;
45354;SDS011;31091;48.758;9.150;2024-01-15T06:03:23;15.55;;;7.60;;
45354;SDS011;31091;48.758;9.150;2024-01-15T06:06:08;15.45;;;7.43;;
45354;SDS011;31091;48.758;9.150;2024-01-15T06:08:54;16.40;;;7.57;;
45354;SDS011;31091;48.758;9.150;2024-01-15T06:11:39;17.35;;;7.47;;
45354;SDS011;31091;48.758;9.150;2024-01-15T06:14:24;15.18;;;7.03;;
45354;SDS011;31091;48.758;9.150;2024-01-15T06:17:09;17.17;;;7.20;;
45354;SDS011;31091;48.758;9.150;2024-01-15T06:19:55;16.90;;;7.60;;
45354;SDS011;31091;48.758;9.150;2024-01-15T06:22:40;15.32;;;6.50;;
45354;SDS011;31091;48.758;9.150;2024-01-15T06:25:25;14.75;;;6.60;;
45354;SDS011;31091;48.758;9.150;2024-01-15T06:28:10;19.20;;;6.95;;
45354;SDS011;31091;48.758;9.150;2024-01-15T06:30:56;13.10;;;6.13;;
45354;SDS011;31091;48.758;9.150;2024-01-15T06:33:42;12.80;;;5.93;;
45354;SDS011;31091;48.758;9.150;2024-01-15T06:36:27;15.07;;;6.60;;
45354;SDS011;31091;48.758;9.150;2024-01-15T06:39:12;18.25;;;6.72;;
45354;SDS011;31091;48.758;9.150;2024-01-15T06:41:58;14.05;;;7.07;;
45354;SDS011;31091;48.758;9.150;2024-01-15T06:44:43;21.05;;;7.50;;
45354;SDS011;31091;48.758;9.150;2024-01-15T06:47:28;16.00;;;7.07;;
45354;SDS011;31091;48.758;9.150;2024-01-15T06:50:13;16.42;;;6.32;;
45354;SDS011;31091;48.758;9.150;2024-01-15T06:52:59;15.30;;;7.18;;
45354;SDS011;31091;48.758;9.150;2024-01-15T06:55:44;17.10;;;7.22;;
45354;SDS011;31091;48.758;9.150;2024-01-15T06:58:32;13.02;;;6.85;;
45354;SDS011;31091;48.758;9.150;2024-01-15T07:01:17;12.65;;;6.55;;
45354;SDS011;31091;48.758;9.150;2024-01-15T07:04:03;13.52;;;5.85;;
45354;SDS011;31091;48.758;9.150;2024-01-15T07:06:48;18.13;;;6.35;;
45354;SDS011;31091;48.758;9.150;2024-01-15T07:09:33;11.32;;;5.43;;
45354;SDS011;31091;48.758;9.150;2024-01-15T07:12:19;14.40;;;6.75;;
45354;SDS011;31091;48.758;9.150;2024-01-15T07:15:04;13.63;;;6.20;;
45354;SDS011;31091;48.758;9.150;2024-01-15T07:17:52;13.63;;;6.22;;
45354;SDS011;31091;48.758;9.150;2024-01-15T07:20:37;13.32;;;6.45;;
45354;SDS011;31091;48.758;9.150;2024-01-15T07:23:22;14.43;;;6.50;;
45354;SDS011;31091;48.758;9.150;2024-01-15T07:26:07;11.85;;;5.05;;
45354;SDS011;31091;48.758;9.150;2024-01-15T07:28:52;15.95;;;6.85;;
45354;SDS011;31091;48.758;9.150;2024-01-15T07:31:38;15.63;;;6.72;;
45354;SDS011;31091;48.758;9.150;2024-01-15T07:34:23;14.10;;;6.65;;
45354;SDS011;31091;48.758;9.150;2024-01-15T07:37:08;15.10;;;7.00;;
45354;SDS011;31091;48.758;9.150;2024-01-15T07:39:53;12.63;;;6.80;;
45354;SDS011;31091;48.758;9.150;2024-01-15T07:42:39;15.40;;;7.45;;
45354;SDS011;31091;48.758;9.150;2024-01-15T07:45:24;16.52;;;7.38;;
45354;SDS011;31091;48.758;9.150;2024-01-15T07:48:09;15.13;;;7.43;;
45354;SDS011;31091;48.758;9.150;2024-01-15T07:50:55;13.88;;;6.78;;
45354;SDS011;31091;48.758;9.150;2024-01-15T07:53:40;15.35;;;6.32;;
45354;SDS011;31091;48.758;9.150;2024-01-15T07:56:26;14.15;;;6.45;;
45354;SDS011;31091;48.758;9.150;2024-01-15T07:59:12;16.25;;;6.30;;
45354;SDS011;31091;48.758;9.150;2024-01-15T08:01:58;15.40;;;5.95;;
45354;SDS011;31091;48.758;9.150;2024-01-15T08:04:44;14.45;;;5.60;;
45354;SDS011;31091;48.758;9.150;2024-01-15T08:07:30;13.80;;;5.60;;
45354;SDS011;31091;48.758;9.150;2024-01-15T08:10:15;15.85;;;6.03;;
45354;SDS011;31091;48.758;9.150;2024-01-15T08:13:00;11.98;;;5.63;;
45354;SDS011;31091;48.758;9.150;2024-01-15T08:15:48;13.77;;;5.75;;
45354;SDS011;31091;48.758;9.150;2024-01-15T08:18:33;16.55;;;7.10;;
45354;SDS011;31091;48.758;9.150;2024-01-15T08:21:18;15.60;;;5.95;;
45354;SDS011;31091;48.758;9.150;2024-01-15T08:24:04;17.95;;;6.88;;
45354;SDS011;31091;48.758;9.150;2024-01-15T08:26:50;12.25;;;6.13;;
45354;SDS011;31091;48.758;9.150;2024-01-15T08:29:35;11.88;;;5.45;;
45354;SDS011;31091;48.758;9.150;2024-01-15T08:32:20;18.02;;;6.85;;
45354;SDS011;31091;48.758;9.150;2024-01-15T08:35:06;12.02;;;5.78;;
45354;SDS011;31091;48.758;9.150;2024-01-15T08:37:51;14.13;;;5.60;;
45354;SDS011;31091;48.758;9.150;2024-01-15T08:40:37;14.10;;;5.93;;
45354;SDS011;31091;48.758;9.150;2024-01-15T08:43:22;14.70;;;5.70;;
45354;SDS011;31091;48.758;9.150;2024-01-15T08:46:07;13.23;;;5.82;;
45354;SDS011;31091;48.758;9.150;2024-01-15T08:48:52;11.38;;;5.13;;
45354;SDS011;31091;48.758;9.150;2024-01-15T08:51:38;13.38;;;5.10;;
45354;SDS011;31091;48.758;9.150;2024-01-15T08:54:24;17.77;;;6.07;;
45354;SDS011;31091;48.758;9.150;2024-01-15T08:57:09;14.50;;;5.53;;
45354;SDS011;31091;48.758;9.150;2024-01-15T08:59:54;10.95;;;4.75;;
45354;SDS011;31091;48.758;9.150;2024-01-15T09:02:39;13.00;;;5.43;;
45354;SDS011;31091;48.758;9.150;2024-01-15T09:05:24;7.50;;;4.15;;
45354;SDS011;31091;48.758;9.150;2024-01-15T09:08:10;10.73;;;4.90;;
45354;SDS011;31091;48.758;9.150;2024-01-15T09:10:55;9.80;;;4.97;;
45354;SDS011;31091;48.758;9.150;2024-01-15T09:13:40;10.30;;;4.32;;
45354;SDS011;31091;48.758;9.150;2024-01-15T09:16:26;12.57;;;4.45;;
45354;SDS011;31091;48.758;9.150;2024-01-15T09:19:11;13.02;;;4.07;;
45354;SDS011;31091;48.758;9.150;2024-01-15T09:21:56;8.65;;;3.90;;
45354;SDS011;31091;48.758;9.150;2024-01-15T09:24:41;10.48;;;3.85;;
45354;SDS011;31091;48.758;9.150;2024-01-15T09:27:27;8.98;;;4.10;;
45354;SDS011;31091;48.758;9.150;2024-01-15T09:30:12;8.10;;;3.50;;
45354;SDS011;31091;48.758;9.150;2024-01-15T09:32:57;10.23;;;4.25;;
45354;SDS011;31091;48.758;9.150;2024-01-15T09:35:43;10.50;;;4.28;;
45354;SDS011;31091;48.758;9.150;2024-01-15T09:38:28;10.40;;;3.63;;
45354;SDS011;31091;48.758;9.150;2024-01-15T09:41:13;8.98;;;4.22;;
45354;SDS011;31091;48.758;9.150;2024-01-15T09:43:59;8.50;;;3.75;;
45354;SDS011;31091;48.758;9.150;2024-01-15T09:46:44;9.05;;;4.20;;
45354;SDS011;31091;48.758;9.150;2024-01-15T09:49:30;10.07;;;3.67;;
45354;SDS011;31091;48.758;9.150;2024-01-15T09:52:15;8.65;;;3.75;;
45354;SDS011;31091;48.758;9.150;2024-01-15T09:55:02;10.65;;;4.68;;
45354;SDS011;31091;48.758;9.150;2024-01-15T09:57:48;10.23;;;4.32;;
45354;SDS011;31091;48.758;9.150;2024-01-15T10:00:34;10.73;;;4.90;;
45354;SDS011;31091;48.758;9.150;2024-01-15T10:06:09;9.57;;;4.68;;
45354;SDS011;31091;48.758;9.150;2024-01-15T10:08:56;9.77;;;4.07;;
45354;SDS011;31091;48.758;9.150;2024-01-15T10:11:43;9.43;;;4.15;;
45354;SDS011;31091;48.758;9.150;2024-01-15T10:14:31;9.80;;;4.60;;
45354;SDS011;31091;48.758;9.150;2024-01-15T10:17:17;8.18;;;3.90;;
45354;SDS011;31091;48.758;9.150;2024-01-15T10:20:03;9.02;;;3.75;;
45354;SDS011;31091;48.758;9.150;2024-01-15T10:22:52;9.75;;;3.67;;
45354;SDS011;31091;48.758;9.150;2024-01-15T10:25:37;7.72;;;3.67;;
45354;SDS011;31091;48.758;9.150;2024-01-15T10:28:22;12.98;;;4.60;;
45354;SDS011;31091;48.758;9.150;2024-01-15T10:31:08;10.25;;;3.92;;
45354;SDS011;31091;48.758;9.150;2024-01-15T10:33:53;7.95;;;3.75;;
45354;SDS011;31091;48.758;9.150;2024-01-15T10:36:41;7.88;;;3.40;;
45354;SDS011;31091;48.758;9.150;2024-01-15T10:39:30;8.90;;;3.30;;
45354;SDS011;31091;48.758;9.150;2024-01-15T10:42:16;9.80;;;4.07;;
45354;SDS011;31091;48.758;9.150;2024-01-15T10:45:03;9.00;;;4.25;;
45354;SDS011;31091;48.758;9.150;2024-01-15T10:47:51;11.75;;;4.03;;
45354;SDS011;31091;48.758;9.150;2024-01-15T10:50:36;8.07;;;3.75;;
45354;SDS011;31091;48.758;9.150;2024-01-15T10:53:21;7.13;;;3.05;;
45354;SDS011;31091;48.758;9.150;2024-01-15T10:56:08;9.23;;;3.70;;
45354;SDS011;31091;48.758;9.150;2024-01-15T10:58:55;7.95;;;3.45;;
45354;SDS011;31091;48.758;9.150;2024-01-15T11:01:41;15.02;;;3.72;;
45354;SDS011;31091;48.758;9.150;2024-01-15T11:04:27;10.18;;;4.13;;
45354;SDS011;31091;48.758;9.150;2024-01-15T11:07:13;8.93;;;3.70;;
45354;SDS011;31091;48.758;9.150;2024-01-15T11:09:59;19.15;;;5.38;;
45354;SDS011;31091;48.758;9.150;2024-01-15T11:12:44;9.15;;;4.65;;
45354;SDS011;31091;48.758;9.150;2024-01-15T11:15:32;8.82;;;3.65;;
45354;SDS011;31091;48.758;9.150;2024-01-15T11:18:17;8.57;;;3.58;;
45354;SDS011;31091;48.758;9.150;2024-01-15T11:24:03;8.90;;;3.92;;
45354;SDS011;31091;48.758;9.150;2024-01-15T11:26:51;10.60;;;4.30;;
45354;SDS011;31091;48.758;9.150;2024-01-15T11:29:39;10.82;;;4.60;;
45354;SDS011;31091;48.758;9.150;2024-01-15T11:32:30;13.65;;;4.10;;
45354;SDS011;31091;48.758;9.150;2024-01-15T11:35:18;9.85;;;4.40;;
45354;SDS011;31091;48.758;9.150;2024-01-15T11:38:04;10.70;;;5.00;;
45354;SDS011;31091;48.758;9.150;2024-01-15T11:40:50;11.65;;;4.50;;
45354;SDS011;31091;48.758;9.150;2024-01-15T11:43:35;12.25;;;4.93;;
45354;SDS011;31091;48.758;9.150;2024-01-15T11:46:20;11.07;;;4.82;;
45354;SDS011;31091;48.758;9.150;2024-01-15T11:49:06;10.10;;;4.93;;
45354;SDS011;31091;48.758;9.150;2024-01-15T11:51:52;9.50;;;4.80;;
45354;SDS011;31091;48.758;9.150;2024-01-15T11:54:39;9.88;;;5.00;;
45354;SDS011;31091;48.758;9.150;2024-01-15T11:57:40;10.40;;;5.22;;
45354;SDS011;31091;48.758;9.150;2024-01-15T12:00:26;8.02;;;4.55;;
45354;SDS011;31091;48.758;9.150;2024-01-15T12:03:11;13.55;;;5.93;;
45354;SDS011;31091;48.758;9.150;2024-01-15T12:05:56;12.32;;;4.68;;
45354;SDS011;31091;48.758;9.150;2024-01-15T12:08:43;10.23;;;4.70;;
45354;SDS011;31091;48.758;9.150;2024-01-15T12:11:31;13.25;;;5.18;;
45354;SDS011;31091;48.758;9.150;2024-01-15T12:17:06;8.32;;;3.90;;
45354;SDS011;31091;48.758;9.150;2024-01-15T12:19:51;11.05;;;5.00;;
45354;SDS011;31091;48.758;9.150;2024-01-15T12:22:36;18.60;;;5.93;;
45354;SDS011;31091;48.758;9.150;2024-01-15T12:25:23;11.82;;;4.82;;
45354;SDS011;31091;48.758;9.150;2024-01-15T12:28:08;10.90;;;5.00;;
45354;SDS011;31091;48.758;9.150;2024-01-15T12:30:55;8.77;;;4.63;;
45354;SDS011;31091;48.758;9.150;2024-01-15T12:33:40;9.48;;;5.20;;
45354;SDS011;31091;48.758;9.150;2024-01-15T12:36:25;12.40;;;5.40;;
45354;SDS011;31091;48.758;9.150;2024-01-15T12:39:12;10.98;;;5.47;;
45354;SDS011;31091;48.758;9.150;2024-01-15T12:41:57;10.93;;;5.30;;
45354;SDS011;31091;48.758;9.150;2024-01-15T12:44:43;13.38;;;5.25;;
45354;SDS011;31091;48.758;9.150;2024-01-15T12:47:30;11.05;;;5.10;;
45354;SDS011;31091;48.758;9.150;2024-01-15T12:50:16;11.88;;;5.13;;
45354;SDS011;31091;48.758;9.150;2024-01-15T12:53:01;13.00;;;5.22;;
45354;SDS011;31091;48.758;9.150;2024-01-15T12:55:47;14.23;;;5.72;;
45354;SDS011;31091;48.758;9.150;2024-01-15T12:58:32;12.55;;;5.22;;
45354;SDS011;31091;48.758;9.150;2024-01-15T13:01:17;11.43;;;5.18;;
45354;SDS011;31091;48.758;9.150;2024-01-15T13:04:02;10.75;;;5.25;;
45354;SDS011;31091;48.758;9.150;2024-01-15T13:06:48;9.93;;;5.22;;
45354;SDS011;31091;48.758;9.150;2024-01-15T13:09:34;13.55;;;6.30;;
45354;SDS011;31091;48.758;9.150;2024-01-15T13:12:20;11.65;;;5.40;;
45354;SDS011;31091;48.758;9.150;2024-01-15T13:15:05;10.95;;;5.07;;
45354;SDS011;31091;48.758;9.150;2024-01-15T13:17:56;9.98;;;5.43;;
45354;SDS011;31091;48.758;9.150;2024-01-15T13:20:41;9.68;;;4.45;;
45354;SDS011;31091;48.758;9.150;2024-01-15T13:23:27;11.00;;;4.57;;
45354;SDS011;31091;48.758;9.150;2024-01-15T13:26:12;14.45;;;5.13;;
45354;SDS011;31091;48.758;9.150;2024-01-15T13:28:59;11.18;;;4.28;;
45354;SDS011;31091;48.758;9.150;2024-01-15T13:31:44;8.73;;;4.45;;
45354;SDS011;31091;48.758;9.150;2024-01-15T13:34:31;10.10;;;4.18;;
45354;SDS011;31091;48.758;9.150;2024-01-15T13:37:16;9.57;;;3.78;;
45354;SDS011;31091;48.758;9.150;2024-01-15T13:40:02;9.80;;;3.63;;
45354;SDS011;31091;48.758;9.150;2024-01-15T13:42:48;6.35;;;3.53;;
45354;SDS011;31091;48.758;9.150;2024-01-15T13:45:34;20.67;;;6.20;;
45354;SDS011;31091;48.758;9.150;2024-01-15T13:48:20;7.60;;;3.55;;
45354;SDS011;31091;48.758;9.150;2024-01-15T13:51:05;6.32;;;3.88;;
45354;SDS011;31091;48.758;9.150;2024-01-15T13:53:51;7.47;;;3.58;;
45354;SDS011;31091;48.758;9.150;2024-01-15T13:56:36;7.53;;;3.25;;
45354;SDS011;31091;48.758;9.150;2024-01-15T13:59:21;9.43;;;3.22;;
45354;SDS011;31091;48.758;9.150;2024-01-15T14:02:07;5.88;;;2.75;;
45354;SDS011;31091;48.758;9.150;2024-01-15T14:04:53;6.95;;;3.25;;
45354;SDS011;31091;48.758;9.150;2024-01-15T14:07:39;6.47;;;3.55;;
45354;SDS011;31091;48.758;9.150;2024-01-15T14:10:24;6.82;;;3.30;;
45354;SDS011;31091;48.758;9.150;2024-01-15T14:13:10;6.03;;;3.22;;
45354;SDS011;31091;48.758;9.150;2024-01-15T14:15:55;9.30;;;3.38;;
45354;SDS011;31091;48.758;9.150;2024-01-15T14:18:40;8.93;;;3.95;;
45354;SDS011;31091;48.758;9.150;2024-01-15T14:21:26;8.43;;;3.28;;
45354;SDS011;31091;48.758;9.150;2024-01-15T14:24:11;6.80;;;3.60;;
45354;SDS011;31091;48.758;9.150;2024-01-15T14:26:56;8.35;;;2.75;;
45354;SDS011;31091;48.758;9.150;2024-01-15T14:29:42;8.00;;;3.65;;
45354;SDS011;31091;48.758;9.150;2024-01-15T14:32:27;10.10;;;3.90;;
45354;SDS011;31091;48.758;9.150;2024-01-15T14:35:12;7.22;;;2.35;;
45354;SDS011;31091;48.758;9.150;2024-01-15T14:37:58;5.20;;;2.97;;
45354;SDS011;31091;48.758;9.150;2024-01-15T14:40:43;8.77;;;3.00;;
45354;SDS011;31091;48.758;9.150;2024-01-15T14:43:29;7.60;;;2.70;;
45354;SDS011;31091;48.758;9.150;2024-01-15T14:46:14;6.60;;;3.42;;
45354;SDS011;31091;48.758;9.150;2024-01-15T14:48:59;8.25;;;3.17;;
45354;SDS011;31091;48.758;9.150;2024-01-15T14:51:45;8.63;;;2.90;;
45354;SDS011;31091;48.758;9.150;2024-01-15T14:54:30;7.05;;;3.40;;
45354;SDS011;31091;48.758;9.150;2024-01-15T14:57:15;6.90;;;3.60;;
45354;SDS011;31091;48.758;9.150;2024-01-15T15:00:00;7.45;;;3.45;;
45354;SDS011;31091;48.758;9.150;2024-01-15T15:02:46;6.57;;;3.45;;
45354;SDS011;31091;48.758;9.150;2024-01-15T15:05:32;9.40;;;3.63;;
45354;SDS011;31091;48.758;9.150;2024-01-15T15:08:17;6.43;;;3.50;;
45354;SDS011;31091;48.758;9.150;2024-01-15T15:11:02;6.55;;;3.53;;
45354;SDS011;31091;48.758;9.150;2024-01-15T15:13:48;7.10;;;3.38;;
45354;SDS011;31091;48.758;9.150;2024-01-15T15:16:34;9.45;;;3.17;;
45354;SDS011;31091;48.758;9.150;2024-01-15T15:19:20;10.48;;;3.80;;
45354;SDS011;31091;48.758;9.150;2024-01-15T15:22:05;8.02;;;3.75;;
45354;SDS011;31091;48.758;9.150;2024-01-15T15:24:50;8.85;;;4.53;;
45354;SDS011;31091;48.758;9.150;2024-01-15T15:27:36;7.78;;;4.18;;
45354;SDS011;31091;48.758;9.150;2024-01-15T15:30:21;6.80;;;3.53;;
45354;SDS011;31091;48.758;9.150;2024-01-15T15:33:06;9.10;;;3.78;;
45354;SDS011;31091;48.758;9.150;2024-01-15T15:35:51;6.25;;;3.65;;
45354;SDS011;31091;48.758;9.150;2024-01-15T15:38:36;7.00;;;3.83;;
45354;SDS011;31091;48.758;9.150;2024-01-15T15:41:22;7.32;;;3.90;;
45354;SDS011;31091;48.758;9.150;2024-01-15T15:44:10;9.00;;;4.20;;
45354;SDS011;31091;48.758;9.150;2024-01-15T15:46:57;7.95;;;3.78;;
45354;SDS011;31091;48.758;9.150;2024-01-15T15:49:43;7.43;;;3.85;;
45354;SDS011;31091;48.758;9.150;2024-01-15T15:52:28;10.10;;;3.95;;
45354;SDS011;31091;48.758;9.150;2024-01-15T15:55:13;7.18;;;3.85;;
45354;SDS011;31091;48.758;9.150;2024-01-15T15:57:58;6.28;;;3.22;;
45354;SDS011;31091;48.758;9.150;2024-01-15T16:00:43;8.30;;;4.10;;
45354;SDS011;31091;48.758;9.150;2024-01-15T16:03:29;9.50;;;4.03;;
45354;SDS011;31091;48.758;9.150;2024-01-15T16:06:16;10.15;;;5.50;;
45354;SDS011;31091;48.758;9.150;2024-01-15T16:09:01;7.25;;;3.53;;
45354;SDS011;31091;48.758;9.150;2024-01-15T16:11:47;8.95;;;4.63;;
45354;SDS011;31091;48.758;9.150;2024-01-15T16:14:35;8.60;;;4.50;;
45354;SDS011;31091;48.758;9.150;2024-01-15T16:17:21;8.88;;;4.47;;
45354;SDS011;31091;48.758;9.150;2024-01-15T16:20:06;8.45;;;4.53;;
45354;SDS011;31091;48.758;9.150;2024-01-15T16:22:52;11.07;;;5.32;;
45354;SDS011;31091;48.758;9.150;2024-01-15T16:25:37;8.60;;;4.20;;
45354;SDS011;31091;48.758;9.150;2024-01-15T16:28:22;6.72;;;3.70;;
45354;SDS011;31091;48.758;9.150;2024-01-15T16:31:08;7.65;;;3.83;;
45354;SDS011;31091;48.758;9.150;2024-01-15T16:33:53;10.63;;;4.97;;
45354;SDS011;31091;48.758;9.150;2024-01-15T16:36:41;9.95;;;4.57;;